METAR AND TAF INFORMATION
METAR FOR UAUU
ADDS - METARS form results

(0044 UTC 18 November 2019)
Data provider http://aviationweather.gov/metar/data/
 
METAR text: UAUU 180030Z 32005MPS 9999 OVC024 M01/M03 Q1024 R33/420060 NOSIG RMK QFE752/1003
Conditions at: UAUU (KOSTANAY , KZ) observed 0030 UTC 18 November 2019
Temperature: -1.0°C (30°F)
Dewpoint: -3.0°C (27°F) [RH = 86%]
Pressure (altimeter): 30.24 inches Hg (1024.0 mb)
Winds: from the NW (320 degrees) at 12 MPH (10 knots; 5.1 m/s)
Visibility: 6 or more miles (10+ km)
Ceiling: 2400 feet AGL
Clouds: overcast cloud deck at 2400 feet AGL
Weather: no significant weather observed at this time

METAR text: UAUU 180000Z 32005MPS 9999 OVC023 M01/M03 Q1024 R33/420060 NOSIG RMK QFE752/1003
Conditions at: UAUU (KOSTANAY , KZ) observed 0000 UTC 18 November 2019
Temperature: -1.0°C (30°F)
Dewpoint: -3.0°C (27°F) [RH = 86%]
Pressure (altimeter): 30.24 inches Hg (1024.0 mb)
Winds: from the NW (320 degrees) at 12 MPH (10 knots; 5.1 m/s)
Visibility: 6 or more miles (10+ km)
Ceiling: 2300 feet AGL
Clouds: overcast cloud deck at 2300 feet AGL
Weather: no significant weather observed at this time

Forecast for: UAUU (KOSTANAY , KZ)
Text: TAF UAUU 172300Z 1800/1809 33005MPS 9999 BKN020
Forecast period: 0000 to 0900 UTC 18 November 2019
Forecast type: FROM: standard forecast or significant change
Winds: from the NNW (330 degrees) at 12 MPH (10 knots; 5.1 m/s)
Visibility: 6 or more miles 10+ km)
Ceiling: 2000 feet AGL
Clouds: broken clouds at 2000 feet AGL
Weather: no significant weather forecast for this period
Text: TEMPO 1800/1806 3100 -SHSNRA BR BKN011CB
Forecast period: 0000 to 0600 UTC 18 November 2019
Forecast type: TEMPORARY: The following changes expected for less than half the time period
Visibility: 1.93 miles (3.11 km)
Ceiling: 1100 feet AGL
Clouds: broken clouds at 1100 feet AGL
Weather: -SHSN -SHRA BR  (light snow showers, light rain showers, mist)
Text: TEMPO 1806/1809 5000 -SHSNRA BKN011CB
Forecast period: 0600 to 0900 UTC 18 November 2019
Forecast type: TEMPORARY: The following changes expected for less than half the time period
Visibility: 3 miles (5 km)
Ceiling: 1100 feet AGL
Clouds: broken clouds at 1100 feet AGL
Weather: -SHSN -SHRA  (light snow showers, light rain showers)

 AIRPORT MAP

 RUNWAY INFORMATION

 AIRPORT FREQUENCIES
Type TWR Name TWR Frequency 129.3 MHZ

 AIRPORT NEAR NAVIGATION AIDS
Type NDB Name Kostanay Frequency 512 KHZ
Type NDB Name Kostanay Frequency 512 KHZ



2018 Air Astana Virtual Airline